Hovedside
METAR-TAF:

METAR-TAF

Lufthavner :

El Oued, Algerie

breddegrad: 33-30-47N, lengdegrad: 006-46-57E, høyde over havet: 62 m

METAR: fraværende

Tid: 05:35 (04:35 UTC)

Varsel

Denne rapporten ble laget for 2 timer og 35 minutter siden, klokken 02:00 UTC
Varsel gyldig fra 19. klokken 03 UTC til 19. klokken 12 UTC
Vind 10 kt fra Sørvest
Sikt 10 km eller mer
ingen skyer under 1500 m og ingen bygeskyer

TAF: DAUO 190200Z 1903/1912 22010KT CAVOK

Værobservasjoner og værvarsel for over 4000 flyplasser (METAR- og TAF-rapporter).

Tilgjengelige stasjoner er representert av de røde og gule prikkene på kartet.

Hold musepekeren over prikken for å se navnet på stasjonen.

Klikk så for å se værobservasjoner og -varsler.

For å forandre kartet kan du klikke på den grønne knappen med svart kryss for å zoome inn, på den grønne knappen med strek for å zoome ut, eller på de grønne pilene for å se tilstøtende kart.


METAR-TAF: